Marlborough, NH (03455)

11:27 AM EST on February 13, 2016 (GMT -0500)
APRSWXNET | | Change Station
CLOSE
Current Station
Personal Weather Station
Location: Marlborough, NH
Elevation: 754 ft
Nearby Weather Stations
Active Advisory: Wind Chill Warning Active Notice: Public Information Statement

Elev 754 ft 42.91 °N, 72.22 °W | Updated 27 minutes ago

Mostly Cloudy
Mostly Cloudy
17 °F
Feels Like 17 °F
N
3
Wind Variable Wind from West
Gusts 9.0 mph

Today
High -- | Low -- °F
--% Chance of Precip.
Yesterday
High -- | Low -- °F
Precip. -- in
Pressure 29.87 in
Visibility 10.0 miles
Clouds Mostly Cloudy 6000 ft
Mostly Cloudy 6500 ft
Windchill 17 °F
Dew Point -3 °F
Humidity 41%
Rainfall in
Snow Depth Not available.
6:49 AM 5:16 PM
Waxing Crescent, 32% visible
METAR KEEN 131615Z AUTO 29008G19KT 260V320 10SM BKN060 BKN065 M08/M23 A2987 RMK AO1
Pressure 29.87 in
Visibility 10.0 miles
Clouds Mostly Cloudy 6000 ft
Mostly Cloudy 6500 ft
Windchill 17 °F
Dew Point -3 °F
Humidity 41%
Rainfall in
Snow Depth Not available.
6:49 AM 5:16 PM
Waxing Crescent, 32% visible
METAR KEEN 131615Z AUTO 29008G19KT 260V320 10SM BKN060 BKN065 M08/M23 A2987 RMK AO1

10-Day Weather Forecast

Almanac

Astronomy

Feb. 13, 2016 Rise Set
Actual Time
Civil Twilight
Nautical Twilight
Astronomical Twilight
Moon
Length of Visible Light
Length of Day
Tomorrow will be .
, % of the Moon is Illuminated

Today's Extremes

State Highs State Lows

Community

WunderPhotos

Upload Photos

1,892,599 photos uploaded!

WunderBlog® & News

Nearby

Air Quality

  Air Quality AQ Index Pollutant
Not available.

Snow Depth

Station Depth Elevation

Earthquake Activity

City Distance Mag. Time & Date
Minimum magnitude displayed is 2.5.

Coastal Water Temperatures

Place Temperature

Stations

Nearby Weather Stations

Station Location Temp. Windchill Dew Point Humidity Wind Precip. Elev Updated Type
                   

Watches & Warnings

Wind Chill Warning
Issued: 10:17 AM EST Feb. 13, 2016 – National Weather Service

... Wind chill warning remains in effect from midnight tonight to
10 am EST Sunday...

* hazard types... dangerous wind chill readings.

* Wind chill... as low as 37 below due to temperatures 1 below to
14 below zero... and winds northwest 10 to 20 mph with gusts up
to 30 mph.

* Timing... late Saturday night and Sunday morning.

* Impacts... frostbite and hypothermia if unprotected from the
cold.

* Winds... northwest 10 to 20 mph with gusts up to 30 mph.

* Temperatures... 1 below to 14 below zero.

Precautionary/preparedness actions...

A wind chill warning means the combination of very cold air and
strong winds will create dangerously low wind chill values. This
will result in frost bite and lead to hypothermia or death if
precautions are not taken.